Time;durP1;ratioP1;P1;durP2;ratioP2;P2;SDS_P1;SDS_P2;PMS_P1;PMS_P2;Temp;Humidity;BMP_temperature;BMP_pressure;BME280_temperature;BME280_humidity;BME280_pressure;Samples;Min_cycle;Max_cycle;Signal;HPM_P1;HPM_P2
2021/12/13 00:01:41;;;;;;;10.73;6.40;;;6.90;99.90;;;;;;5031024;28;20425;-68
2021/12/13 00:04:12;;;;;;;11.57;7.43;;;6.90;99.90;;;;;;5024898;28;20425;-70
2021/12/13 00:06:43;;;;;;;10.43;7.57;;;7.00;99.90;;;;;;5039762;28;20440;-70
2021/12/13 00:09:19;;;;;;;11.00;6.70;;;7.00;99.90;;;;;;5051384;28;20926;-69
2021/12/13 00:11:48;;;;;;;12.73;6.33;;;7.00;99.90;;;;;;5036118;28;20420;-69
2021/12/13 00:14:19;;;;;;;14.30;6.83;;;7.00;99.90;;;;;;5030428;28;20412;-69
2021/12/13 00:16:49;;;;;;;12.80;7.00;;;7.00;99.90;;;;;;5022985;28;20417;-69
2021/12/13 00:19:21;;;;;;;11.63;6.83;;;7.00;99.90;;;;;;5011513;28;20936;-69
2021/12/13 00:21:51;;;;;;;12.10;6.63;;;7.00;99.90;;;;;;5020496;28;20485;-70
2021/12/13 00:24:23;;;;;;;14.00;7.63;;;7.10;99.90;;;;;;5027720;28;20546;-70
2021/12/13 00:26:59;;;;;;;13.23;8.13;;;7.10;99.90;;;;;;5023409;28;20908;-70
2021/12/13 00:29:31;;;;;;;14.90;8.83;;;7.10;99.90;;;;;;5011069;28;20503;-70
2021/12/13 00:32:10;;;;;;;16.37;9.40;;;7.10;99.90;;;;;;5023348;28;20420;-70
2021/12/13 00:34:42;;;;;;;13.00;8.23;;;7.10;99.90;;;;;;5031965;28;20833;-70
2021/12/13 00:37:14;;;;;;;21.53;10.13;;;7.10;99.90;;;;;;5035865;28;20425;-70
2021/12/13 00:39:57;;;;;;;16.03;9.30;;;7.20;99.90;;;;;;5014010;28;20528;-70
2021/12/13 00:42:29;;;;;;;20.50;9.40;;;7.20;99.90;;;;;;5023380;28;20950;-70
2021/12/13 00:44:59;;;;;;;19.63;9.73;;;7.20;99.90;;;;;;5013796;28;20455;-70
2021/12/13 00:47:28;;;;;;;18.70;10.90;;;7.20;99.90;;;;;;5009932;28;20426;-69
2021/12/13 00:50:00;;;;;;;14.80;9.07;;;7.20;99.90;;;;;;5017003;28;20524;-69
2021/12/13 00:52:30;;;;;;;16.00;7.63;;;7.20;99.90;;;;;;5012542;28;20405;-70
2021/12/13 00:54:56;;;;;;;13.00;7.63;;;7.20;99.90;;;;;;5015470;28;20401;-70
2021/12/13 00:57:30;;;;;;;11.57;7.57;;;7.20;99.90;;;;;;5029595;28;20507;-70
2021/12/13 01:00:07;;;;;;;12.03;7.30;;;7.20;99.90;;;;;;5028387;28;20530;-69
2021/12/13 01:02:50;;;;;;;11.63;6.50;;;7.20;99.90;;;;;;5029178;28;21073;-70
2021/12/13 01:05:26;;;;;;;12.40;7.60;;;7.10;99.90;;;;;;5033758;28;20973;-70
2021/12/13 01:08:11;;;;;;;10.70;7.20;;;7.10;99.90;;;;;;5020211;28;20481;-70
2021/12/13 01:11:11;;;;;;;10.43;7.57;;;7.10;99.90;;;;;;5030161;28;20456;-69
2021/12/13 01:13:48;;;;;;;11.00;7.13;;;7.10;99.90;;;;;;5029546;28;20440;-70
2021/12/13 01:19:13;;;;;;;17.67;7.77;;;7.20;99.90;;;;;;5013349;28;20478;-69
2021/12/13 01:22:02;;;;;;;10.93;7.83;;;7.10;99.90;;;;;;5031458;28;20953;-71
2021/12/13 01:27:55;;;;;;;14.23;7.80;;;7.20;99.90;;;;;;5016732;28;20459;-69
2021/12/13 01:30:28;;;;;;;13.63;7.20;;;7.20;99.90;;;;;;5008520;28;20568;-70
2021/12/13 01:32:56;;;;;;;11.90;7.50;;;7.30;99.90;;;;;;5025793;28;20445;-70
2021/12/13 01:35:26;;;;;;;12.93;7.60;;;7.30;99.90;;;;;;5031577;28;20760;-70
2021/12/13 01:37:54;;;;;;;13.27;7.80;;;7.30;99.90;;;;;;5034807;28;20410;-69
2021/12/13 01:40:26;;;;;;;10.90;8.10;;;7.30;99.90;;;;;;5018605;28;20451;-70
2021/12/13 01:43:09;;;;;;;13.20;7.87;;;7.30;99.90;;;;;;5019707;28;20424;-71
2021/12/13 01:45:39;;;;;;;17.20;8.53;;;7.30;99.90;;;;;;5027393;28;20432;-70
2021/12/13 01:48:06;;;;;;;9.13;6.00;;;7.30;99.90;;;;;;5009140;28;20880;-69
2021/12/13 01:50:49;;;;;;;9.07;6.70;;;7.20;99.90;;;;;;5021246;28;20436;-70
2021/12/13 01:53:17;;;;;;;8.80;5.80;;;7.20;99.90;;;;;;5026557;28;20854;-71
2021/12/13 01:55:47;;;;;;;10.10;6.37;;;7.20;99.90;;;;;;5026601;28;20471;-71
2021/12/13 02:01:09;;;;;;;8.77;6.30;;;7.10;99.90;;;;;;5009896;28;20745;-70
2021/12/13 02:03:43;;;;;;;9.40;6.33;;;7.20;99.90;;;;;;5016769;28;20499;-71
2021/12/13 02:06:10;;;;;;;9.00;5.90;;;7.20;99.90;;;;;;5042764;28;20925;-70
2021/12/13 02:08:36;;;;;;;9.70;6.37;;;7.30;99.90;;;;;;5048663;28;20447;-70
2021/12/13 02:11:02;;;;;;;9.60;6.10;;;7.30;99.90;;;;;;5047810;28;20404;-71
2021/12/13 02:13:37;;;;;;;10.83;6.67;;;7.30;99.90;;;;;;5048281;28;20916;-70
2021/12/13 02:18:54;;;;;;;10.10;6.33;;;7.30;99.90;;;;;;5028395;28;20427;-71
2021/12/13 02:21:31;;;;;;;9.67;6.30;;;7.30;99.90;;;;;;5024996;28;20448;-71
2021/12/13 02:24:05;;;;;;;8.83;6.03;;;7.30;99.90;;;;;;5020138;28;20934;-70
2021/12/13 02:26:34;;;;;;;10.00;6.53;;;7.30;99.90;;;;;;5026809;28;20424;-70
2021/12/13 02:29:16;;;;;;;9.00;6.47;;;7.20;99.90;;;;;;5027211;28;20541;-70
2021/12/13 02:31:42;;;;;;;10.00;6.97;;;7.20;99.90;;;;;;5022183;28;20424;-70
2021/12/13 02:34:12;;;;;;;9.00;6.30;;;7.20;99.90;;;;;;5024136;28;20426;-70
2021/12/13 02:36:50;;;;;;;14.00;7.20;;;7.10;99.90;;;;;;5037817;28;20174;-69
2021/12/13 02:39:20;;;;;;;10.33;6.80;;;7.00;99.90;;;;;;5026490;28;20440;-70
2021/12/13 02:41:46;;;;;;;10.43;6.83;;;7.00;99.90;;;;;;5013712;28;20520;-70
2021/12/13 02:44:25;;;;;;;18.13;7.20;;;7.00;99.90;;;;;;5021863;28;20422;-69
2021/12/13 02:46:55;;;;;;;13.97;7.40;;;7.00;99.90;;;;;;5024628;28;20424;-70
2021/12/13 02:49:21;;;;;;;11.30;6.67;;;7.10;99.90;;;;;;5018517;28;20488;-70
2021/12/13 02:51:52;;;;;;;11.50;7.07;;;7.10;99.90;;;;;;5019357;28;20432;-70
2021/12/13 02:54:43;;;;;;;8.90;5.50;;;7.20;99.90;;;;;;5008538;28;20492;-69
2021/12/13 02:57:15;;;;;;;12.30;7.23;;;7.20;99.90;;;;;;5010196;28;20963;-70
2021/12/13 02:59:45;;;;;;;11.57;6.20;;;7.30;99.90;;;;;;5008303;28;20432;-72
2021/12/13 03:02:16;;;;;;;7.80;5.90;;;7.30;99.90;;;;;;5008675;28;20402;-70
2021/12/13 03:04:42;;;;;;;8.63;5.80;;;7.30;99.90;;;;;;5023504;28;20508;-70
2021/12/13 03:07:28;;;;;;;10.13;6.20;;;7.30;99.90;;;;;;5030949;28;20417;-70
2021/12/13 03:09:55;;;;;;;8.17;5.80;;;7.30;99.90;;;;;;5027943;28;20436;-69
2021/12/13 03:12:24;;;;;;;8.97;6.10;;;7.30;99.90;;;;;;5027597;28;20404;-69
2021/12/13 03:14:56;;;;;;;8.13;6.50;;;7.30;99.90;;;;;;5026813;28;20886;-70
2021/12/13 03:17:30;;;;;;;8.77;6.33;;;7.40;99.90;;;;;;5027564;28;20850;-70
2021/12/13 03:20:07;;;;;;;8.63;6.20;;;7.40;99.90;;;;;;5024956;28;20447;-70
2021/12/13 03:23:00;;;;;;;8.20;6.20;;;7.40;99.90;;;;;;5007732;28;20880;-69
2021/12/13 03:25:45;;;;;;;9.93;6.10;;;7.40;99.90;;;;;;5017603;28;20424;-71
2021/12/13 03:28:13;;;;;;;14.90;6.33;;;7.40;99.90;;;;;;5023785;28;20456;-70
2021/12/13 03:30:55;;;;;;;10.60;6.20;;;7.40;99.90;;;;;;5016339;28;20522;-70
2021/12/13 03:33:31;;;;;;;10.20;6.67;;;7.30;99.90;;;;;;5017689;28;20429;-70
2021/12/13 03:35:59;;;;;;;8.87;6.43;;;7.30;99.90;;;;;;5019407;28;20455;-70
2021/12/13 03:38:32;;;;;;;11.93;6.30;;;7.30;99.90;;;;;;5015820;28;20428;-70
2021/12/13 03:41:02;;;;;;;9.93;6.33;;;7.20;99.90;;;;;;5012022;28;20446;-69
2021/12/13 03:43:36;;;;;;;10.67;6.77;;;7.20;99.90;;;;;;5017020;28;20424;-70
2021/12/13 03:46:04;;;;;;;8.93;6.17;;;7.20;99.90;;;;;;5016104;28;20925;-70
2021/12/13 03:48:31;;;;;;;9.30;6.00;;;7.20;99.90;;;;;;5026716;28;20484;-70
2021/12/13 03:51:03;;;;;;;12.50;6.00;;;7.30;99.90;;;;;;5009078;28;20429;-69
2021/12/13 03:53:32;;;;;;;9.10;5.50;;;7.30;99.90;;;;;;5025349;28;20416;-70
2021/12/13 03:56:04;;;;;;;8.80;6.10;;;7.30;99.90;;;;;;5016710;28;20416;-70
2021/12/13 03:58:36;;;;;;;16.17;6.90;;;7.30;99.90;;;;;;5026890;28;20409;-71
2021/12/13 04:01:25;;;;;;;9.23;6.37;;;7.30;99.90;;;;;;5018722;28;20937;-70
2021/12/13 04:03:54;;;;;;;11.13;6.00;;;7.50;99.90;;;;;;5015126;28;20997;-70
2021/12/13 04:06:20;;;;;;;10.73;6.80;;;7.40;99.90;;;;;;5035249;28;20476;-70
2021/12/13 04:08:52;;;;;;;10.87;6.20;;;7.40;99.90;;;;;;5025148;28;20452;-70
2021/12/13 04:11:18;;;;;;;9.27;6.40;;;7.40;99.90;;;;;;5024808;28;20875;-69
2021/12/13 04:13:48;;;;;;;9.03;5.67;;;7.40;99.90;;;;;;5014425;28;20923;-70
2021/12/13 04:16:46;;;;;;;20.80;6.30;;;7.40;99.90;;;;;;5027323;28;20478;-70
2021/12/13 04:19:16;;;;;;;9.80;6.40;;;7.40;99.90;;;;;;5009937;28;20429;-70
2021/12/13 04:22:02;;;;;;;8.57;6.00;;;7.50;99.90;;;;;;5026566;28;20440;-70
2021/12/13 04:24:45;;;;;;;13.00;6.67;;;7.50;99.90;;;;;;5026496;28;20499;-70
2021/12/13 04:27:16;;;;;;;9.67;6.10;;;7.50;99.90;;;;;;5026528;28;20731;-70
2021/12/13 04:29:45;;;;;;;9.60;6.43;;;7.50;99.90;;;;;;5026283;28;20950;-70
2021/12/13 04:32:30;;;;;;;10.20;6.77;;;7.50;99.90;;;;;;5023813;28;20455;-70
2021/12/13 04:35:03;;;;;;;11.93;6.77;;;7.50;99.90;;;;;;5028653;28;20789;-69
2021/12/13 04:37:40;;;;;;;12.07;6.60;;;7.50;99.90;;;;;;5047929;28;20423;-70
2021/12/13 04:40:15;;;;;;;9.90;6.00;;;7.50;99.90;;;;;;5041524;28;20532;-70
2021/12/13 04:42:42;;;;;;;10.00;5.70;;;7.50;99.90;;;;;;5027301;28;20892;-69
2021/12/13 04:45:15;;;;;;;11.93;6.30;;;7.50;99.90;;;;;;5010163;28;20413;-70
2021/12/13 04:48:05;;;;;;;10.67;6.70;;;7.50;99.90;;;;;;5029127;28;20436;-70
2021/12/13 04:50:56;;;;;;;9.87;6.40;;;7.50;99.90;;;;;;5028064;28;21244;-69
2021/12/13 04:53:29;;;;;;;9.60;5.77;;;7.50;99.90;;;;;;5005983;28;20417;-70
2021/12/13 04:55:58;;;;;;;9.23;6.30;;;7.50;99.90;;;;;;5021774;28;20417;-69
2021/12/13 04:58:25;;;;;;;9.53;6.03;;;7.50;99.90;;;;;;5024556;28;20747;-70
2021/12/13 05:00:55;;;;;;;8.77;6.30;;;7.40;99.90;;;;;;5021180;28;20976;-70
2021/12/13 05:03:24;;;;;;;11.40;7.37;;;7.40;99.90;;;;;;5022790;28;20571;-69
2021/12/13 05:05:50;;;;;;;9.83;6.90;;;7.40;99.90;;;;;;5041351;28;20451;-70
2021/12/13 05:08:18;;;;;;;9.83;6.43;;;7.40;99.90;;;;;;5041027;28;20846;-69
2021/12/13 05:10:48;;;;;;;10.83;6.50;;;7.50;99.90;;;;;;5029420;28;20194;-70
2021/12/13 05:13:19;;;;;;;9.70;6.50;;;7.50;99.90;;;;;;5018226;28;20743;-70
2021/12/13 05:16:09;;;;;;;11.50;7.27;;;7.50;99.90;;;;;;5026182;28;20440;-71
2021/12/13 05:18:45;;;;;;;9.00;6.90;;;7.50;99.90;;;;;;5016760;28;20728;-70
2021/12/13 05:21:25;;;;;;;10.97;7.17;;;7.30;99.90;;;;;;5010608;28;20425;-71
2021/12/13 05:24:04;;;;;;;11.77;7.00;;;7.40;99.90;;;;;;5013367;28;20490;-70
2021/12/13 05:26:34;;;;;;;13.13;7.40;;;7.50;99.90;;;;;;5021130;28;20432;-71
2021/12/13 05:29:02;;;;;;;11.63;6.90;;;7.40;99.90;;;;;;5022215;28;20529;-70
2021/12/13 05:31:30;;;;;;;11.20;6.87;;;7.40;99.90;;;;;;5011818;28;20401;-70
2021/12/13 05:34:05;;;;;;;9.93;7.20;;;7.40;99.90;;;;;;5028697;28;20423;-70
2021/12/13 05:36:34;;;;;;;10.53;7.57;;;7.40;99.90;;;;;;5033161;28;20424;-70
2021/12/13 05:39:13;;;;;;;15.13;8.23;;;7.40;99.90;;;;;;5019597;28;20450;-70
2021/12/13 05:41:47;;;;;;;12.20;7.67;;;7.40;99.90;;;;;;5025679;28;20605;-70
2021/12/13 05:44:13;;;;;;;13.30;8.30;;;7.50;99.90;;;;;;5015557;28;20938;-70
2021/12/13 05:46:46;;;;;;;11.90;7.63;;;7.40;99.90;;;;;;5026949;28;20435;-69
2021/12/13 05:49:32;;;;;;;14.60;8.13;;;7.30;99.90;;;;;;5027355;28;20303;-69
2021/12/13 05:52:08;;;;;;;11.00;7.40;;;7.30;99.90;;;;;;5018277;28;20504;-69
2021/12/13 05:54:46;;;;;;;11.03;7.57;;;7.30;99.90;;;;;;5028384;28;20435;-70
2021/12/13 05:57:26;;;;;;;10.73;7.83;;;7.30;99.90;;;;;;5015962;28;20420;-70
2021/12/13 05:59:51;;;;;;;13.90;8.17;;;7.30;99.90;;;;;;5029196;28;20481;-69
2021/12/13 06:02:30;;;;;;;10.63;7.40;;;7.60;99.90;;;;;;5029281;28;20482;-69
2021/12/13 06:05:01;;;;;;;13.60;8.37;;;7.30;99.90;;;;;;5029852;28;20225;-71
2021/12/13 06:07:36;;;;;;;12.50;8.03;;;7.30;99.90;;;;;;5033906;28;20497;-70
2021/12/13 06:10:13;;;;;;;15.70;8.50;;;7.30;99.90;;;;;;5028856;28;20597;-71
2021/12/13 06:12:54;;;;;;;15.27;7.77;;;7.30;99.90;;;;;;5028597;28;20457;-70
2021/12/13 06:15:33;;;;;;;18.10;7.83;;;7.40;99.90;;;;;;5025149;28;20511;-69
2021/12/13 06:18:04;;;;;;;11.40;7.73;;;7.40;99.90;;;;;;5028080;28;20475;-70
2021/12/13 06:20:53;;;;;;;13.40;7.67;;;7.40;99.90;;;;;;5026385;28;20652;-70
2021/12/13 06:23:29;;;;;;;11.03;7.57;;;7.40;99.90;;;;;;5026610;28;21126;-72
2021/12/13 06:26:08;;;;;;;12.50;7.10;;;7.40;99.90;;;;;;5027047;28;20416;-69
2021/12/13 06:28:37;;;;;;;11.50;8.30;;;7.40;99.90;;;;;;5016771;28;20464;-69
2021/12/13 06:31:11;;;;;;;11.60;7.57;;;7.40;99.90;;;;;;5008952;28;20523;-70
2021/12/13 06:33:50;;;;;;;12.03;7.87;;;7.40;99.90;;;;;;5013862;28;20782;-70
2021/12/13 06:36:32;;;;;;;11.20;7.97;;;7.50;99.90;;;;;;5031862;28;20511;-69
2021/12/13 06:39:06;;;;;;;17.70;9.00;;;7.60;99.90;;;;;;5008527;28;20994;-70
2021/12/13 06:41:37;;;;;;;15.23;7.57;;;8.30;99.90;;;;;;5020050;28;20425;-70
2021/12/13 06:44:37;;;;;;;12.43;8.50;;;7.50;99.90;;;;;;5028695;28;20433;-70
2021/12/13 06:47:15;;;;;;;11.87;7.60;;;7.50;99.90;;;;;;5009066;28;20463;-71
2021/12/13 06:49:43;;;;;;;11.73;7.07;;;7.50;99.90;;;;;;5007464;28;20464;-70
2021/12/13 06:52:11;;;;;;;10.67;7.20;;;7.40;99.90;;;;;;5027704;28;20424;-71
2021/12/13 06:54:41;;;;;;;10.70;6.00;;;7.50;99.90;;;;;;5019262;28;20524;-70
2021/12/13 06:57:17;;;;;;;9.40;6.93;;;7.50;99.90;;;;;;5025131;28;20954;-71
2021/12/13 06:59:57;;;;;;;13.57;7.30;;;7.50;99.90;;;;;;5014869;28;20453;-70
2021/12/13 07:02:48;;;;;;;10.13;6.70;;;7.50;99.90;;;;;;5024870;28;20921;-70
2021/12/13 07:05:25;;;;;;;19.80;10.43;;;7.50;99.90;;;;;;5017226;28;20734;-70
2021/12/13 16:01:34;;;;;;;11.13;7.30;;;8.60;99.90;;;;;;4963425;28;20663;-68
2021/12/13 16:04:09;;;;;;;10.60;7.40;;;8.70;99.90;;;;;;5004099;28;20415;-67
2021/12/13 16:06:41;;;;;;;11.80;7.10;;;8.80;99.90;;;;;;4974528;28;20437;-66
2021/12/13 16:09:11;;;;;;;15.20;8.00;;;9.00;99.90;;;;;;4966588;28;20447;-68
2021/12/13 16:11:39;;;;;;;11.90;7.67;;;9.00;99.90;;;;;;4955650;28;20415;-68
2021/12/13 16:14:20;;;;;;;10.47;7.00;;;9.20;99.90;;;;;;4953053;28;20778;-68
2021/12/13 16:16:59;;;;;;;10.40;7.70;;;9.30;99.90;;;;;;4946124;28;20964;-67
2021/12/13 16:19:35;;;;;;;9.80;7.20;;;9.60;99.90;;;;;;4945142;28;20463;-67
2021/12/13 16:22:02;;;;;;;14.90;8.27;;;9.60;99.90;;;;;;4963343;28;20419;-67
2021/12/13 16:24:28;;;;;;;12.93;8.30;;;9.80;99.90;;;;;;5033119;28;20536;-67
2021/12/13 16:26:54;;;;;;;12.47;8.60;;;9.80;99.90;;;;;;4964048;28;20519;-67
2021/12/13 16:29:24;;;;;;;13.73;9.10;;;9.90;99.90;;;;;;4962145;28;20207;-67
2021/12/13 16:31:51;;;;;;;11.27;8.03;;;9.90;99.90;;;;;;4966108;28;21127;-69
2021/12/13 16:34:21;;;;;;;11.80;7.50;;;10.00;99.90;;;;;;4981752;28;20432;-67
2021/12/13 16:36:56;;;;;;;12.90;7.97;;;9.90;99.90;;;;;;4960660;28;20850;-68
2021/12/13 16:39:21;;;;;;;11.63;8.27;;;9.90;99.90;;;;;;4945752;28;20870;-67
2021/12/13 16:41:51;;;;;;;15.30;10.47;;;9.90;99.90;;;;;;4944165;28;20514;-68
2021/12/13 16:44:21;;;;;;;13.60;8.50;;;9.90;99.90;;;;;;4944545;28;20173;-68
2021/12/13 16:46:49;;;;;;;13.77;9.47;;;9.90;99.90;;;;;;4955361;28;20488;-68
2021/12/13 16:49:24;;;;;;;15.30;8.73;;;9.90;99.90;;;;;;4962523;28;20514;-68
2021/12/13 16:51:57;;;;;;;15.33;9.70;;;9.90;99.90;;;;;;4946031;28;20443;-68
2021/12/13 16:54:30;;;;;;;13.63;8.57;;;9.90;99.90;;;;;;4942609;28;20509;-68
2021/12/13 16:57:00;;;;;;;16.10;8.60;;;9.70;99.90;;;;;;4946953;28;20790;-69
2021/12/13 16:59:26;;;;;;;11.37;7.90;;;9.80;99.90;;;;;;5000598;28;20558;-68
2021/12/13 17:01:55;;;;;;;13.60;9.70;;;9.90;99.90;;;;;;5020851;28;20510;-67
2021/12/13 17:04:35;;;;;;;15.90;9.60;;;9.80;99.90;;;;;;4949645;28;20512;-68
2021/12/13 17:07:12;;;;;;;19.47;11.80;;;9.70;99.90;;;;;;4958210;28;20482;-68
2021/12/13 17:10:08;;;;;;;17.40;11.13;;;9.80;99.90;;;;;;4962248;28;20423;-67
2021/12/13 17:12:53;;;;;;;16.30;10.50;;;9.70;99.90;;;;;;4944844;28;20424;-70
2021/12/13 17:15:29;;;;;;;18.10;9.60;;;9.70;99.90;;;;;;4984066;28;20431;-70
2021/12/13 17:17:55;;;;;;;13.60;9.80;;;9.80;99.90;;;;;;4967662;28;20439;-70
2021/12/13 17:20:31;;;;;;;15.80;10.20;;;9.80;99.90;;;;;;4975591;28;20468;-68
2021/12/13 17:23:19;;;;;;;17.13;10.57;;;9.80;99.90;;;;;;4928951;29;20204;-68
2021/12/13 17:25:45;;;;;;;17.20;10.57;;;9.80;99.90;;;;;;4937613;28;21003;-69
2021/12/13 17:28:10;;;;;;;17.23;10.93;;;9.70;99.90;;;;;;4948592;28;20416;-68
2021/12/13 17:30:36;;;;;;;16.33;10.23;;;9.70;99.90;;;;;;4943573;28;20292;-68
2021/12/13 17:33:03;;;;;;;16.10;11.20;;;9.60;99.90;;;;;;4961782;28;20263;-68
2021/12/13 17:35:43;;;;;;;16.00;9.90;;;9.60;99.90;;;;;;4949970;28;20181;-68
2021/12/13 17:38:15;;;;;;;17.60;11.17;;;9.60;99.90;;;;;;4947776;28;20459;-68
2021/12/13 17:40:50;;;;;;;15.23;11.13;;;9.70;99.90;;;;;;4988242;28;20551;-68
2021/12/13 17:43:38;;;;;;;15.73;10.23;;;9.60;99.90;;;;;;4978856;28;20421;-69
2021/12/13 17:46:08;;;;;;;19.50;11.00;;;9.60;99.90;;;;;;4941732;28;20453;-69
2021/12/13 17:48:37;;;;;;;20.00;10.50;;;9.50;99.90;;;;;;4934966;28;20456;-70
2021/12/13 17:51:05;;;;;;;16.13;11.17;;;9.50;99.90;;;;;;4946417;28;20443;-69
2021/12/13 17:53:36;;;;;;;16.30;11.57;;;9.50;99.90;;;;;;4984046;28;20561;-70
2021/12/13 17:56:07;;;;;;;18.17;12.70;;;9.60;99.90;;;;;;4947195;29;20454;-70
2021/12/13 17:58:39;;;;;;;18.67;12.30;;;9.50;99.90;;;;;;4947422;28;20656;-70
2021/12/13 18:01:22;;;;;;;16.83;11.97;;;9.60;99.90;;;;;;4981022;28;20471;-71
2021/12/13 18:03:59;;;;;;;18.07;11.83;;;9.50;99.90;;;;;;4939638;28;20435;-70
2021/12/13 18:06:40;;;;;;;16.23;11.43;;;9.50;99.90;;;;;;4933346;28;20448;-69
2021/12/13 18:09:12;;;;;;;19.83;11.80;;;9.50;99.90;;;;;;4947718;29;20789;-70
2021/12/13 18:12:07;;;;;;;19.83;12.13;;;9.50;99.90;;;;;;4938814;28;21022;-71
2021/12/13 18:14:32;;;;;;;16.37;11.50;;;9.60;99.90;;;;;;4929575;29;20463;-69
2021/12/13 18:17:00;;;;;;;16.77;11.57;;;9.60;99.90;;;;;;4929711;28;20432;-71
2021/12/13 18:19:36;;;;;;;18.50;10.90;;;9.60;99.90;;;;;;4938263;28;20764;-70
2021/12/13 18:22:03;;;;;;;19.00;11.70;;;9.60;99.90;;;;;;4943564;29;20427;-69
2021/12/13 18:24:28;;;;;;;19.27;11.40;;;9.60;99.90;;;;;;4986845;28;20422;-69
2021/12/13 18:26:59;;;;;;;16.20;11.70;;;9.50;99.90;;;;;;4949477;28;21167;-69
2021/12/13 18:29:27;;;;;;;22.43;13.93;;;9.40;99.90;;;;;;4948779;28;20188;-71
2021/12/13 18:31:54;;;;;;;20.47;12.60;;;9.50;99.90;;;;;;4948218;28;20423;-68
2021/12/13 18:34:23;;;;;;;18.77;12.53;;;9.50;99.90;;;;;;4966377;28;20484;-69
2021/12/13 18:36:54;;;;;;;20.47;13.13;;;9.50;99.90;;;;;;4947244;28;21123;-69
2021/12/13 18:39:32;;;;;;;24.27;13.10;;;9.50;99.90;;;;;;4933772;28;20453;-69
2021/12/13 18:42:12;;;;;;;18.70;12.40;;;9.50;99.90;;;;;;4930225;28;20457;-69
2021/12/13 18:44:52;;;;;;;19.37;12.20;;;9.50;99.90;;;;;;4928677;29;20513;-69
2021/12/13 18:47:22;;;;;;;22.90;12.03;;;9.50;99.90;;;;;;4938782;28;20515;-69
2021/12/13 18:50:09;;;;;;;23.80;13.73;;;9.50;99.90;;;;;;4926586;28;20444;-69
2021/12/13 18:52:40;;;;;;;22.70;13.30;;;9.50;99.90;;;;;;4938078;28;20531;-69
2021/12/13 18:55:20;;;;;;;20.83;12.93;;;9.50;99.90;;;;;;4936253;29;20424;-69
2021/12/13 18:57:56;;;;;;;26.40;13.20;;;9.40;99.90;;;;;;4945759;28;21230;-69
2021/12/13 19:00:51;;;;;;;26.63;14.37;;;9.40;99.90;;;;;;4954114;28;20466;-69
2021/12/13 19:03:22;;;;;;;23.20;13.47;;;9.50;99.90;;;;;;4989589;28;20919;-69
2021/12/13 19:06:10;;;;;;;24.43;14.03;;;9.40;99.90;;;;;;4938354;28;20420;-69
2021/12/13 19:08:44;;;;;;;18.17;13.37;;;;;;;;;;4938664;28;20421;-69
2021/12/13 19:11:24;;;;;;;19.40;12.67;;;9.40;99.90;;;;;;4945909;28;20432;-68
2021/12/13 19:13:55;;;;;;;25.90;14.47;;;9.40;99.90;;;;;;4957075;28;20515;-69
2021/12/13 19:16:48;;;;;;;25.60;14.10;;;9.40;99.90;;;;;;5031143;28;20407;-69
2021/12/13 19:19:28;;;;;;;21.07;13.57;;;9.40;99.90;;;;;;5047738;28;20435;-69
2021/12/13 19:22:01;;;;;;;28.60;14.30;;;9.40;99.90;;;;;;4963640;28;20428;-69
2021/12/13 19:24:31;;;;;;;22.43;13.40;;;9.40;99.90;;;;;;4927058;28;20484;-68
2021/12/13 19:27:03;;;;;;;24.93;14.33;;;9.40;99.90;;;;;;4928045;29;20409;-68
2021/12/13 19:29:38;;;;;;;23.37;14.87;;;9.30;99.90;;;;;;4962600;28;20501;-69
2021/12/13 19:32:17;;;;;;;25.80;14.80;;;9.30;99.90;;;;;;5000250;28;20529;-69
2021/12/13 19:34:49;;;;;;;24.60;14.87;;;9.30;99.90;;;;;;4945057;28;20420;-69
2021/12/13 19:37:19;;;;;;;25.33;16.33;;;9.30;99.90;;;;;;4939024;28;21013;-69
2021/12/13 19:39:57;;;;;;;28.13;15.13;;;9.30;99.90;;;;;;4943651;28;20463;-69
2021/12/13 19:42:31;;;;;;;22.27;13.90;;;9.30;99.90;;;;;;4944248;29;20424;-69
2021/12/13 19:45:04;;;;;;;23.23;15.27;;;9.30;99.90;;;;;;4939496;28;20785;-70
2021/12/13 19:47:36;;;;;;;23.77;14.40;;;9.30;99.90;;;;;;4930724;28;20507;-69
2021/12/13 19:50:12;;;;;;;24.97;14.63;;;9.30;99.90;;;;;;4927735;29;20950;-68
2021/12/13 19:52:44;;;;;;;25.80;14.40;;;9.30;99.90;;;;;;4979897;28;20577;-69
2021/12/13 19:55:24;;;;;;;21.23;13.00;;;9.30;99.90;;;;;;4935396;28;20441;-69
2021/12/13 19:57:59;;;;;;;20.37;14.20;;;9.30;99.90;;;;;;4928914;29;20427;-69
2021/12/13 20:00:36;;;;;;;25.67;13.27;;;9.30;99.90;;;;;;4936053;28;20479;-69
2021/12/13 20:03:09;;;;;;;27.03;14.47;;;9.30;99.90;;;;;;4949278;28;20502;-68
2021/12/13 20:05:55;;;;;;;22.17;14.53;;;9.30;99.90;;;;;;4940898;28;20509;-69
2021/12/13 20:08:32;;;;;;;23.53;14.70;;;9.30;99.90;;;;;;4949625;28;20573;-69
2021/12/13 20:11:12;;;;;;;24.10;14.70;;;9.30;99.90;;;;;;4946603;28;20459;-69
2021/12/13 20:14:03;;;;;;;24.63;14.50;;;9.30;99.90;;;;;;4938152;28;20439;-68
2021/12/13 20:16:53;;;;;;;25.17;15.60;;;9.40;99.90;;;;;;4960642;28;21042;-69
2021/12/13 20:19:28;;;;;;;25.43;15.67;;;9.30;99.90;;;;;;4998822;28;20739;-69
2021/12/13 20:22:02;;;;;;;25.37;16.03;;;9.30;99.90;;;;;;4950895;28;20424;-68
2021/12/13 20:24:34;;;;;;;24.20;15.07;;;9.30;99.90;;;;;;4946124;28;20812;-69
2021/12/13 20:27:07;;;;;;;22.33;13.90;;;9.30;99.90;;;;;;4945059;28;20420;-69
2021/12/13 20:29:36;;;;;;;27.50;15.90;;;9.40;99.90;;;;;;4946942;28;20448;-69
2021/12/13 20:32:16;;;;;;;27.80;15.50;;;9.40;99.90;;;;;;4945199;28;20926;-70
2021/12/13 20:35:05;;;;;;;27.60;15.90;;;9.40;99.90;;;;;;4965784;28;20424;-69
2021/12/13 20:37:35;;;;;;;27.43;16.60;;;9.40;99.90;;;;;;4948958;28;20754;-69
2021/12/13 20:40:21;;;;;;;27.43;16.67;;;9.40;99.90;;;;;;4955188;28;20586;-69
2021/12/13 20:42:52;;;;;;;26.90;16.70;;;9.40;99.90;;;;;;4996109;28;20421;-69
2021/12/13 20:45:27;;;;;;;25.87;15.93;;;9.30;99.90;;;;;;4942055;28;20421;-69
2021/12/13 20:47:58;;;;;;;25.67;15.87;;;9.30;99.90;;;;;;4942065;29;20448;-68
2021/12/13 20:50:35;;;;;;;28.90;17.40;;;9.30;99.90;;;;;;4949067;28;20810;-68
2021/12/13 20:53:02;;;;;;;27.10;16.73;;;9.30;99.90;;;;;;4945315;29;20459;-69
2021/12/13 20:55:37;;;;;;;30.03;17.40;;;9.40;99.90;;;;;;4945413;28;20432;-68
2021/12/13 20:58:19;;;;;;;27.30;16.33;;;9.30;99.90;;;;;;4943392;28;20433;-69
2021/12/13 21:01:05;;;;;;;28.90;17.00;;;9.30;99.90;;;;;;4931083;28;20472;-68
2021/12/13 21:03:50;;;;;;;26.73;17.03;;;9.30;99.90;;;;;;4947012;28;20450;-69
2021/12/13 21:06:27;;;;;;;27.83;17.43;;;9.40;99.90;;;;;;4959043;28;20423;-69
2021/12/13 21:09:05;;;;;;;26.07;15.90;;;9.40;99.90;;;;;;4938489;28;20528;-69
2021/12/13 21:11:36;;;;;;;26.27;15.60;;;9.30;99.90;;;;;;4936681;28;20914;-69
2021/12/13 21:14:06;;;;;;;24.57;15.90;;;9.30;99.90;;;;;;4982737;28;21119;-69
2021/12/13 21:16:55;;;;;;;30.80;16.13;;;9.30;99.90;;;;;;5041692;28;20454;-69
2021/12/13 21:19:38;;;;;;;23.30;14.70;;;9.30;99.90;;;;;;4990798;28;20689;-70
2021/12/13 21:22:09;;;;;;;26.30;15.27;;;9.30;99.90;;;;;;4943727;28;20527;-70
2021/12/13 21:24:43;;;;;;;25.60;15.97;;;9.40;99.90;;;;;;4932218;29;20584;-72
2021/12/13 21:27:14;;;;;;;25.13;14.70;;;9.40;99.90;;;;;;4948895;28;20453;-69
2021/12/13 21:29:43;;;;;;;23.73;15.17;;;9.40;99.90;;;;;;4938325;28;20458;-69
2021/12/13 21:32:12;;;;;;;24.37;15.33;;;9.50;99.90;;;;;;4928393;28;20522;-68
2021/12/13 21:35:02;;;;;;;25.30;16.27;;;9.50;99.90;;;;;;4966686;28;20428;-68
2021/12/13 21:40:36;;;;;;;24.30;15.43;;;9.50;99.90;;;;;;4946665;28;20589;-69
2021/12/13 21:43:05;;;;;;;24.10;15.20;;;9.50;99.90;;;;;;4947466;28;20420;-68
2021/12/13 21:45:39;;;;;;;25.20;15.47;;;9.50;99.90;;;;;;4947353;28;20428;-69
2021/12/13 21:48:13;;;;;;;22.23;15.03;;;9.60;99.90;;;;;;4947911;29;20400;-69
2021/12/13 21:50:43;;;;;;;27.30;16.60;;;9.60;99.90;;;;;;4933732;28;20468;-69
2021/12/13 21:53:08;;;;;;;25.77;16.20;;;9.50;99.90;;;;;;4993224;28;20452;-69
2021/12/13 21:55:57;;;;;;;25.20;16.50;;;9.50;99.90;;;;;;4951061;28;20483;-68
2021/12/13 21:58:31;;;;;;;22.33;14.50;;;9.50;99.90;;;;;;4933039;28;20271;-68
2021/12/13 22:01:07;;;;;;;20.40;13.60;;;9.40;99.90;;;;;;4935489;28;20559;-69
2021/12/13 22:03:36;;;;;;;23.17;15.13;;;9.40;99.90;;;;;;4937199;28;20645;-69
2021/12/13 22:06:08;;;;;;;27.40;15.97;;;9.40;99.90;;;;;;4955960;28;20941;-69
2021/12/13 22:08:50;;;;;;;25.20;15.90;;;9.40;99.90;;;;;;4935232;28;20429;-69
2021/12/13 22:11:23;;;;;;;24.70;16.30;;;9.40;99.90;;;;;;4960024;28;20419;-69
2021/12/13 22:14:09;;;;;;;22.90;15.10;;;9.40;99.90;;;;;;4933458;28;20933;-70
2021/12/13 22:16:39;;;;;;;26.77;16.07;;;9.40;99.90;;;;;;4942227;29;20459;-69
2021/12/13 22:19:20;;;;;;;25.40;16.73;;;9.40;99.90;;;;;;4937221;28;20953;-68
2021/12/13 22:21:50;;;;;;;27.77;16.63;;;9.40;99.90;;;;;;4935119;29;20462;-69
2021/12/13 22:24:22;;;;;;;37.63;20.43;;;9.40;99.90;;;;;;4941287;28;20526;-69
2021/12/13 22:26:57;;;;;;;36.83;22.90;;;9.40;99.90;;;;;;4956593;28;20425;-69
2021/12/13 22:29:25;;;;;;;28.70;18.27;;;9.40;99.90;;;;;;4929051;29;20460;-69
2021/12/13 22:31:52;;;;;;;27.93;16.80;;;9.30;99.90;;;;;;4933073;28;20517;-69